sensor_id;sensor_type;location;lat;lon;timestamp;P1;durP1;ratioP1;P2;durP2;ratioP2
9481;SDS011;4779;48.062;11.672;2023-03-04T14:18:29;23.23;;;18.50;;
9481;SDS011;4779;48.062;11.672;2023-03-04T14:20:56;19.63;;;16.87;;
9481;SDS011;4779;48.062;11.672;2023-03-04T14:23:26;20.20;;;16.83;;
9481;SDS011;4779;48.062;11.672;2023-03-04T14:26:04;19.70;;;16.83;;
9481;SDS011;4779;48.062;11.672;2023-03-04T14:28:33;19.70;;;15.57;;
9481;SDS011;4779;48.062;11.672;2023-03-04T14:31:10;17.93;;;14.73;;
9481;SDS011;4779;48.062;11.672;2023-03-04T14:36:20;14.03;;;8.43;;
9481;SDS011;4779;48.062;11.672;2023-03-04T14:38:50;16.00;;;8.55;;
9481;SDS011;4779;48.062;11.672;2023-03-04T14:41:22;13.05;;;8.05;;
9481;SDS011;4779;48.062;11.672;2023-03-04T14:43:55;10.27;;;7.30;;
9481;SDS011;4779;48.062;11.672;2023-03-04T14:46:27;11.15;;;7.28;;
9481;SDS011;4779;48.062;11.672;2023-03-04T15:07:40;17.77;;;15.88;;
9481;SDS011;4779;48.062;11.672;2023-03-04T15:10:09;19.27;;;17.30;;
9481;SDS011;4779;48.062;11.672;2023-03-04T15:12:37;18.93;;;16.07;;
9481;SDS011;4779;48.062;11.672;2023-03-04T15:15:28;17.40;;;14.53;;
9481;SDS011;4779;48.062;11.672;2023-03-04T15:18:13;19.17;;;16.73;;
9481;SDS011;4779;48.062;11.672;2023-03-04T15:20:50;17.93;;;15.97;;
9481;SDS011;4779;48.062;11.672;2023-03-04T15:23:23;17.00;;;14.50;;
9481;SDS011;4779;48.062;11.672;2023-03-04T15:25:50;19.07;;;16.03;;
9481;SDS011;4779;48.062;11.672;2023-03-04T15:28:19;17.70;;;15.87;;
9481;SDS011;4779;48.062;11.672;2023-03-04T15:30:47;17.37;;;15.07;;
9481;SDS011;4779;48.062;11.672;2023-03-04T15:33:15;16.77;;;14.97;;
9481;SDS011;4779;48.062;11.672;2023-03-04T15:35:44;16.60;;;13.90;;
9481;SDS011;4779;48.062;11.672;2023-03-04T15:38:18;17.87;;;15.30;;
9481;SDS011;4779;48.062;11.672;2023-03-04T15:40:47;17.50;;;14.80;;
9481;SDS011;4779;48.062;11.672;2023-03-04T15:43:16;16.23;;;13.77;;
9481;SDS011;4779;48.062;11.672;2023-03-04T15:45:44;17.87;;;15.63;;
9481;SDS011;4779;48.062;11.672;2023-03-04T15:48:12;18.17;;;15.30;;
9481;SDS011;4779;48.062;11.672;2023-03-04T15:50:41;18.47;;;15.70;;
9481;SDS011;4779;48.062;11.672;2023-03-04T15:53:12;16.93;;;14.43;;
9481;SDS011;4779;48.062;11.672;2023-03-04T15:55:42;16.63;;;14.00;;
9481;SDS011;4779;48.062;11.672;2023-03-04T15:58:12;17.03;;;14.67;;
9481;SDS011;4779;48.062;11.672;2023-03-04T16:00:40;16.50;;;14.17;;
9481;SDS011;4779;48.062;11.672;2023-03-04T16:03:11;15.23;;;13.50;;
9481;SDS011;4779;48.062;11.672;2023-03-04T16:05:40;15.37;;;13.77;;
9481;SDS011;4779;48.062;11.672;2023-03-04T16:08:08;17.13;;;14.70;;
9481;SDS011;4779;48.062;11.672;2023-03-04T16:10:38;15.93;;;13.87;;
9481;SDS011;4779;48.062;11.672;2023-03-04T16:13:05;17.87;;;15.23;;
9481;SDS011;4779;48.062;11.672;2023-03-04T16:15:33;18.97;;;16.47;;
9481;SDS011;4779;48.062;11.672;2023-03-04T16:18:00;16.40;;;14.13;;
9481;SDS011;4779;48.062;11.672;2023-03-04T16:20:28;18.43;;;15.10;;
9481;SDS011;4779;48.062;11.672;2023-03-04T16:22:56;17.80;;;14.53;;
9481;SDS011;4779;48.062;11.672;2023-03-04T16:25:25;18.10;;;15.43;;
9481;SDS011;4779;48.062;11.672;2023-03-04T16:27:52;17.30;;;14.03;;
9481;SDS011;4779;48.062;11.672;2023-03-04T16:30:21;17.60;;;15.07;;
9481;SDS011;4779;48.062;11.672;2023-03-04T16:32:51;18.27;;;15.03;;
9481;SDS011;4779;48.062;11.672;2023-03-04T16:35:18;16.93;;;13.97;;
9481;SDS011;4779;48.062;11.672;2023-03-04T16:37:49;19.80;;;17.10;;
9481;SDS011;4779;48.062;11.672;2023-03-04T16:40:18;18.47;;;14.97;;
9481;SDS011;4779;48.062;11.672;2023-03-04T16:42:47;18.07;;;14.80;;
9481;SDS011;4779;48.062;11.672;2023-03-04T16:45:14;17.47;;;14.97;;
9481;SDS011;4779;48.062;11.672;2023-03-04T16:47:42;17.27;;;14.40;;
9481;SDS011;4779;48.062;11.672;2023-03-04T16:50:12;17.83;;;15.50;;
9481;SDS011;4779;48.062;11.672;2023-03-04T16:52:39;18.67;;;15.43;;
9481;SDS011;4779;48.062;11.672;2023-03-04T16:55:11;16.17;;;13.63;;
9481;SDS011;4779;48.062;11.672;2023-03-04T16:57:41;17.67;;;13.70;;
9481;SDS011;4779;48.062;11.672;2023-03-04T17:00:09;20.80;;;14.90;;
9481;SDS011;4779;48.062;11.672;2023-03-04T17:02:36;16.67;;;14.87;;
9481;SDS011;4779;48.062;11.672;2023-03-04T17:05:03;17.97;;;14.90;;
9481;SDS011;4779;48.062;11.672;2023-03-04T17:07:33;19.53;;;14.93;;
9481;SDS011;4779;48.062;11.672;2023-03-04T17:10:00;19.33;;;15.47;;
9481;SDS011;4779;48.062;11.672;2023-03-04T17:12:27;20.03;;;17.83;;
9481;SDS011;4779;48.062;11.672;2023-03-04T17:14:54;20.87;;;18.00;;
9481;SDS011;4779;48.062;11.672;2023-03-04T17:17:21;18.47;;;16.13;;
9481;SDS011;4779;48.062;11.672;2023-03-04T17:19:48;18.07;;;14.90;;
9481;SDS011;4779;48.062;11.672;2023-03-04T17:22:15;16.67;;;14.50;;
9481;SDS011;4779;48.062;11.672;2023-03-04T17:24:43;17.50;;;15.60;;
9481;SDS011;4779;48.062;11.672;2023-03-04T17:27:11;19.03;;;15.37;;
9481;SDS011;4779;48.062;11.672;2023-03-04T17:29:38;20.47;;;17.10;;
9481;SDS011;4779;48.062;11.672;2023-03-04T17:32:05;19.10;;;16.50;;
9481;SDS011;4779;48.062;11.672;2023-03-04T17:34:32;19.97;;;16.37;;
9481;SDS011;4779;48.062;11.672;2023-03-04T17:36:59;18.33;;;15.10;;
9481;SDS011;4779;48.062;11.672;2023-03-04T17:39:26;19.17;;;15.47;;
9481;SDS011;4779;48.062;11.672;2023-03-04T17:41:55;20.77;;;16.30;;
9481;SDS011;4779;48.062;11.672;2023-03-04T17:44:21;18.10;;;14.83;;
9481;SDS011;4779;48.062;11.672;2023-03-04T17:46:48;17.20;;;15.33;;
9481;SDS011;4779;48.062;11.672;2023-03-04T17:49:15;17.60;;;15.70;;
9481;SDS011;4779;48.062;11.672;2023-03-04T17:51:42;18.53;;;16.50;;
9481;SDS011;4779;48.062;11.672;2023-03-04T17:54:10;20.30;;;17.00;;
9481;SDS011;4779;48.062;11.672;2023-03-04T17:56:37;22.50;;;19.77;;
9481;SDS011;4779;48.062;11.672;2023-03-04T17:59:08;20.90;;;16.67;;
9481;SDS011;4779;48.062;11.672;2023-03-04T18:01:37;28.20;;;24.83;;
9481;SDS011;4779;48.062;11.672;2023-03-04T18:04:04;18.17;;;15.73;;
9481;SDS011;4779;48.062;11.672;2023-03-04T18:06:31;22.13;;;19.83;;
9481;SDS011;4779;48.062;11.672;2023-03-04T18:08:59;16.57;;;14.10;;
9481;SDS011;4779;48.062;11.672;2023-03-04T18:11:26;20.40;;;18.20;;
9481;SDS011;4779;48.062;11.672;2023-03-04T18:13:53;22.43;;;20.10;;
9481;SDS011;4779;48.062;11.672;2023-03-04T18:16:22;20.60;;;17.70;;
9481;SDS011;4779;48.062;11.672;2023-03-04T18:18:51;21.37;;;17.67;;
9481;SDS011;4779;48.062;11.672;2023-03-04T18:21:18;21.17;;;17.43;;
9481;SDS011;4779;48.062;11.672;2023-03-04T18:23:46;19.47;;;17.23;;
9481;SDS011;4779;48.062;11.672;2023-03-04T18:26:13;20.07;;;17.07;;
9481;SDS011;4779;48.062;11.672;2023-03-04T18:28:40;22.33;;;17.80;;
9481;SDS011;4779;48.062;11.672;2023-03-04T18:31:07;20.00;;;17.13;;
9481;SDS011;4779;48.062;11.672;2023-03-04T18:33:36;19.87;;;16.83;;
9481;SDS011;4779;48.062;11.672;2023-03-04T18:36:05;19.70;;;17.20;;
9481;SDS011;4779;48.062;11.672;2023-03-04T18:38:34;21.73;;;18.30;;
9481;SDS011;4779;48.062;11.672;2023-03-04T18:41:02;20.60;;;17.90;;
9481;SDS011;4779;48.062;11.672;2023-03-04T18:43:30;19.60;;;17.30;;
9481;SDS011;4779;48.062;11.672;2023-03-04T18:46:01;19.87;;;17.80;;
9481;SDS011;4779;48.062;11.672;2023-03-04T18:48:30;18.57;;;15.90;;
9481;SDS011;4779;48.062;11.672;2023-03-04T18:51:01;20.43;;;17.93;;
9481;SDS011;4779;48.062;11.672;2023-03-04T18:53:29;22.77;;;17.17;;
9481;SDS011;4779;48.062;11.672;2023-03-04T18:55:57;20.77;;;17.10;;
9481;SDS011;4779;48.062;11.672;2023-03-04T18:58:28;21.73;;;18.30;;
9481;SDS011;4779;48.062;11.672;2023-03-04T19:00:58;20.43;;;17.50;;
9481;SDS011;4779;48.062;11.672;2023-03-04T19:03:28;19.30;;;17.07;;
9481;SDS011;4779;48.062;11.672;2023-03-04T19:05:58;19.70;;;16.63;;
9481;SDS011;4779;48.062;11.672;2023-03-04T19:08:27;19.97;;;17.60;;
9481;SDS011;4779;48.062;11.672;2023-03-04T19:10:54;20.80;;;16.90;;
9481;SDS011;4779;48.062;11.672;2023-03-04T19:13:23;20.87;;;17.33;;
9481;SDS011;4779;48.062;11.672;2023-03-04T19:15:51;20.60;;;17.47;;
9481;SDS011;4779;48.062;11.672;2023-03-04T19:18:19;20.50;;;16.87;;
9481;SDS011;4779;48.062;11.672;2023-03-04T19:20:46;19.57;;;17.10;;
9481;SDS011;4779;48.062;11.672;2023-03-04T19:23:13;21.37;;;17.23;;
9481;SDS011;4779;48.062;11.672;2023-03-04T19:25:42;21.60;;;17.97;;
9481;SDS011;4779;48.062;11.672;2023-03-04T19:28:09;20.30;;;16.90;;
9481;SDS011;4779;48.062;11.672;2023-03-04T19:30:37;20.70;;;18.37;;
9481;SDS011;4779;48.062;11.672;2023-03-04T19:33:04;20.80;;;18.03;;
9481;SDS011;4779;48.062;11.672;2023-03-04T19:35:31;20.13;;;17.20;;
9481;SDS011;4779;48.062;11.672;2023-03-04T19:37:59;19.60;;;17.40;;
9481;SDS011;4779;48.062;11.672;2023-03-04T19:40:26;19.83;;;16.87;;
9481;SDS011;4779;48.062;11.672;2023-03-04T19:42:55;21.17;;;17.57;;
9481;SDS011;4779;48.062;11.672;2023-03-04T19:45:22;21.07;;;17.30;;
9481;SDS011;4779;48.062;11.672;2023-03-04T19:47:49;19.70;;;17.40;;
9481;SDS011;4779;48.062;11.672;2023-03-04T19:50:17;18.60;;;16.57;;
9481;SDS011;4779;48.062;11.672;2023-03-04T19:52:44;22.77;;;17.57;;
9481;SDS011;4779;48.062;11.672;2023-03-04T19:55:11;20.20;;;16.57;;
9481;SDS011;4779;48.062;11.672;2023-03-04T19:57:39;19.90;;;17.13;;
9481;SDS011;4779;48.062;11.672;2023-03-04T20:00:09;20.93;;;17.60;;
9481;SDS011;4779;48.062;11.672;2023-03-04T20:02:37;20.03;;;17.70;;
9481;SDS011;4779;48.062;11.672;2023-03-04T20:05:07;19.43;;;16.07;;
9481;SDS011;4779;48.062;11.672;2023-03-04T20:07:34;20.37;;;17.07;;
9481;SDS011;4779;48.062;11.672;2023-03-04T20:10:01;22.80;;;18.60;;
9481;SDS011;4779;48.062;11.672;2023-03-04T20:12:28;20.10;;;17.77;;
9481;SDS011;4779;48.062;11.672;2023-03-04T20:14:57;19.53;;;16.60;;
9481;SDS011;4779;48.062;11.672;2023-03-04T20:17:26;20.40;;;17.23;;
9481;SDS011;4779;48.062;11.672;2023-03-04T20:19:53;22.63;;;19.10;;
9481;SDS011;4779;48.062;11.672;2023-03-04T20:22:19;20.77;;;18.40;;
9481;SDS011;4779;48.062;11.672;2023-03-04T20:24:46;20.13;;;17.43;;
9481;SDS011;4779;48.062;11.672;2023-03-04T20:27:13;19.10;;;16.93;;
9481;SDS011;4779;48.062;11.672;2023-03-04T20:29:41;19.23;;;17.20;;
9481;SDS011;4779;48.062;11.672;2023-03-04T20:32:08;20.43;;;17.90;;
9481;SDS011;4779;48.062;11.672;2023-03-04T20:34:37;21.70;;;18.73;;
9481;SDS011;4779;48.062;11.672;2023-03-04T20:37:04;19.43;;;17.40;;
9481;SDS011;4779;48.062;11.672;2023-03-04T20:39:31;22.23;;;18.97;;
9481;SDS011;4779;48.062;11.672;2023-03-04T20:41:57;20.77;;;18.57;;
9481;SDS011;4779;48.062;11.672;2023-03-04T20:44:25;23.23;;;19.30;;
9481;SDS011;4779;48.062;11.672;2023-03-04T20:46:52;23.33;;;18.80;;
9481;SDS011;4779;48.062;11.672;2023-03-04T20:49:20;20.87;;;18.00;;
9481;SDS011;4779;48.062;11.672;2023-03-04T20:51:49;21.40;;;18.80;;
9481;SDS011;4779;48.062;11.672;2023-03-04T20:54:16;19.73;;;17.63;;
9481;SDS011;4779;48.062;11.672;2023-03-04T20:56:43;19.67;;;17.60;;
9481;SDS011;4779;48.062;11.672;2023-03-04T20:59:11;21.37;;;18.20;;
9481;SDS011;4779;48.062;11.672;2023-03-04T21:01:39;18.93;;;16.93;;
9481;SDS011;4779;48.062;11.672;2023-03-04T21:04:08;20.80;;;17.47;;
9481;SDS011;4779;48.062;11.672;2023-03-04T21:06:35;23.23;;;18.97;;
9481;SDS011;4779;48.062;11.672;2023-03-04T21:09:05;23.90;;;19.27;;
9481;SDS011;4779;48.062;11.672;2023-03-04T21:11:34;20.97;;;18.70;;
9481;SDS011;4779;48.062;11.672;2023-03-04T21:14:05;18.70;;;16.70;;
9481;SDS011;4779;48.062;11.672;2023-03-04T21:16:33;21.53;;;17.83;;
9481;SDS011;4779;48.062;11.672;2023-03-04T21:19:00;21.17;;;18.73;;
9481;SDS011;4779;48.062;11.672;2023-03-04T21:21:28;19.77;;;17.67;;
9481;SDS011;4779;48.062;11.672;2023-03-04T21:23:55;23.30;;;19.20;;
9481;SDS011;4779;48.062;11.672;2023-03-04T21:26:24;23.20;;;19.37;;
9481;SDS011;4779;48.062;11.672;2023-03-04T21:28:52;22.37;;;19.33;;
9481;SDS011;4779;48.062;11.672;2023-03-04T21:31:21;21.77;;;19.33;;
9481;SDS011;4779;48.062;11.672;2023-03-04T21:33:50;21.90;;;19.40;;
9481;SDS011;4779;48.062;11.672;2023-03-04T21:36:18;22.20;;;19.60;;
9481;SDS011;4779;48.062;11.672;2023-03-04T21:38:45;23.03;;;18.97;;
9481;SDS011;4779;48.062;11.672;2023-03-04T21:41:12;24.07;;;19.80;;
9481;SDS011;4779;48.062;11.672;2023-03-04T21:43:45;22.90;;;19.63;;
9481;SDS011;4779;48.062;11.672;2023-03-04T21:46:13;27.33;;;21.53;;
9481;SDS011;4779;48.062;11.672;2023-03-04T21:48:41;23.13;;;20.37;;
9481;SDS011;4779;48.062;11.672;2023-03-04T21:51:09;24.43;;;20.33;;
9481;SDS011;4779;48.062;11.672;2023-03-04T21:53:38;23.97;;;19.97;;
9481;SDS011;4779;48.062;11.672;2023-03-04T21:56:05;25.53;;;20.87;;
9481;SDS011;4779;48.062;11.672;2023-03-04T21:58:32;25.67;;;21.63;;
9481;SDS011;4779;48.062;11.672;2023-03-04T22:01:04;24.80;;;20.30;;
9481;SDS011;4779;48.062;11.672;2023-03-04T22:03:34;23.23;;;20.67;;
9481;SDS011;4779;48.062;11.672;2023-03-04T22:06:02;23.67;;;19.17;;
9481;SDS011;4779;48.062;11.672;2023-03-04T22:08:30;23.10;;;20.17;;
9481;SDS011;4779;48.062;11.672;2023-03-04T22:10:57;24.90;;;21.03;;
9481;SDS011;4779;48.062;11.672;2023-03-04T22:13:28;24.47;;;20.63;;
9481;SDS011;4779;48.062;11.672;2023-03-04T22:15:55;24.63;;;20.30;;
9481;SDS011;4779;48.062;11.672;2023-03-04T22:18:24;24.23;;;20.50;;
9481;SDS011;4779;48.062;11.672;2023-03-04T22:20:57;25.83;;;21.00;;
9481;SDS011;4779;48.062;11.672;2023-03-04T22:23:25;23.53;;;19.90;;
9481;SDS011;4779;48.062;11.672;2023-03-04T22:25:52;25.33;;;20.80;;
9481;SDS011;4779;48.062;11.672;2023-03-04T22:28:19;26.30;;;21.63;;
9481;SDS011;4779;48.062;11.672;2023-03-04T22:30:49;27.50;;;21.17;;
9481;SDS011;4779;48.062;11.672;2023-03-04T22:33:15;25.93;;;20.97;;
9481;SDS011;4779;48.062;11.672;2023-03-04T22:35:44;28.27;;;21.87;;
9481;SDS011;4779;48.062;11.672;2023-03-04T22:38:11;26.20;;;21.93;;
9481;SDS011;4779;48.062;11.672;2023-03-04T22:40:38;26.60;;;21.37;;
9481;SDS011;4779;48.062;11.672;2023-03-04T22:43:04;28.03;;;23.40;;
9481;SDS011;4779;48.062;11.672;2023-03-04T22:45:31;27.10;;;21.50;;
9481;SDS011;4779;48.062;11.672;2023-03-04T22:47:58;26.43;;;21.17;;
9481;SDS011;4779;48.062;11.672;2023-03-04T22:50:25;28.63;;;22.07;;
9481;SDS011;4779;48.062;11.672;2023-03-04T22:52:54;26.37;;;22.17;;
9481;SDS011;4779;48.062;11.672;2023-03-04T22:55:21;26.27;;;21.73;;
9481;SDS011;4779;48.062;11.672;2023-03-04T22:57:48;25.60;;;20.80;;
9481;SDS011;4779;48.062;11.672;2023-03-04T23:00:16;24.80;;;21.23;;
9481;SDS011;4779;48.062;11.672;2023-03-04T23:02:46;26.33;;;22.23;;
9481;SDS011;4779;48.062;11.672;2023-03-04T23:05:13;29.37;;;22.73;;
9481;SDS011;4779;48.062;11.672;2023-03-04T23:07:40;25.20;;;20.57;;
9481;SDS011;4779;48.062;11.672;2023-03-04T23:10:10;25.30;;;21.40;;
9481;SDS011;4779;48.062;11.672;2023-03-04T23:12:39;28.37;;;22.17;;
9481;SDS011;4779;48.062;11.672;2023-03-04T23:15:06;24.23;;;20.83;;
9481;SDS011;4779;48.062;11.672;2023-03-04T23:17:34;28.40;;;22.30;;
9481;SDS011;4779;48.062;11.672;2023-03-04T23:20:01;26.17;;;21.67;;
9481;SDS011;4779;48.062;11.672;2023-03-04T23:22:29;28.77;;;22.67;;
9481;SDS011;4779;48.062;11.672;2023-03-04T23:24:56;26.10;;;21.30;;
9481;SDS011;4779;48.062;11.672;2023-03-04T23:27:24;27.93;;;22.50;;
9481;SDS011;4779;48.062;11.672;2023-03-04T23:29:51;26.60;;;21.00;;
9481;SDS011;4779;48.062;11.672;2023-03-04T23:32:18;24.90;;;20.47;;
9481;SDS011;4779;48.062;11.672;2023-03-04T23:34:45;25.77;;;22.10;;
9481;SDS011;4779;48.062;11.672;2023-03-04T23:37:17;23.70;;;20.80;;
9481;SDS011;4779;48.062;11.672;2023-03-04T23:39:44;25.97;;;22.00;;
9481;SDS011;4779;48.062;11.672;2023-03-04T23:42:11;24.27;;;20.53;;
9481;SDS011;4779;48.062;11.672;2023-03-04T23:44:39;26.93;;;22.77;;
9481;SDS011;4779;48.062;11.672;2023-03-04T23:47:07;25.30;;;20.23;;
9481;SDS011;4779;48.062;11.672;2023-03-04T23:49:34;29.77;;;22.13;;
9481;SDS011;4779;48.062;11.672;2023-03-04T23:52:01;26.60;;;22.30;;
9481;SDS011;4779;48.062;11.672;2023-03-04T23:54:27;30.63;;;22.87;;
9481;SDS011;4779;48.062;11.672;2023-03-04T23:56:55;28.40;;;22.50;;
9481;SDS011;4779;48.062;11.672;2023-03-04T23:59:22;24.27;;;20.73;;
